sensor_id;sensor_type;location;lat;lon;timestamp;P1;durP1;ratioP1;P2;durP2;ratioP2
19679;SDS011;9989;48.962;9.182;2023-05-08T00:01:30;18.30;;;7.80;;
19679;SDS011;9989;48.962;9.182;2023-05-08T00:03:56;12.93;;;7.60;;
19679;SDS011;9989;48.962;9.182;2023-05-08T00:06:22;13.00;;;8.37;;
19679;SDS011;9989;48.962;9.182;2023-05-08T00:08:47;12.60;;;7.83;;
19679;SDS011;9989;48.962;9.182;2023-05-08T00:11:13;11.67;;;7.50;;
19679;SDS011;9989;48.962;9.182;2023-05-08T00:13:39;9.93;;;6.40;;
19679;SDS011;9989;48.962;9.182;2023-05-08T00:16:06;9.83;;;6.23;;
19679;SDS011;9989;48.962;9.182;2023-05-08T00:18:33;9.70;;;5.83;;
19679;SDS011;9989;48.962;9.182;2023-05-08T00:21:01;11.03;;;6.50;;
19679;SDS011;9989;48.962;9.182;2023-05-08T00:23:27;13.13;;;6.37;;
19679;SDS011;9989;48.962;9.182;2023-05-08T00:25:52;11.10;;;6.60;;
19679;SDS011;9989;48.962;9.182;2023-05-08T00:28:18;10.13;;;6.40;;
19679;SDS011;9989;48.962;9.182;2023-05-08T00:30:45;10.90;;;5.60;;
19679;SDS011;9989;48.962;9.182;2023-05-08T00:33:10;10.87;;;6.37;;
19679;SDS011;9989;48.962;9.182;2023-05-08T00:35:36;12.40;;;5.83;;
19679;SDS011;9989;48.962;9.182;2023-05-08T00:38:02;10.27;;;5.70;;
19679;SDS011;9989;48.962;9.182;2023-05-08T00:40:27;11.53;;;6.10;;
19679;SDS011;9989;48.962;9.182;2023-05-08T00:42:53;9.23;;;5.33;;
19679;SDS011;9989;48.962;9.182;2023-05-08T00:45:19;8.97;;;5.23;;
19679;SDS011;9989;48.962;9.182;2023-05-08T00:47:44;11.37;;;6.10;;
19679;SDS011;9989;48.962;9.182;2023-05-08T00:50:10;12.33;;;7.03;;
19679;SDS011;9989;48.962;9.182;2023-05-08T00:52:36;12.73;;;7.70;;
19679;SDS011;9989;48.962;9.182;2023-05-08T00:55:02;11.63;;;7.40;;
19679;SDS011;9989;48.962;9.182;2023-05-08T00:57:31;11.37;;;6.53;;
19679;SDS011;9989;48.962;9.182;2023-05-08T00:59:59;11.37;;;6.37;;
19679;SDS011;9989;48.962;9.182;2023-05-08T01:02:26;11.90;;;7.90;;
19679;SDS011;9989;48.962;9.182;2023-05-08T01:04:55;9.97;;;6.40;;
19679;SDS011;9989;48.962;9.182;2023-05-08T01:07:21;12.73;;;6.83;;
19679;SDS011;9989;48.962;9.182;2023-05-08T01:09:47;11.07;;;6.50;;
19679;SDS011;9989;48.962;9.182;2023-05-08T01:12:20;11.80;;;7.53;;
19679;SDS011;9989;48.962;9.182;2023-05-08T01:15:06;11.37;;;7.20;;
19679;SDS011;9989;48.962;9.182;2023-05-08T01:29:16;9.97;;;5.60;;
19679;SDS011;9989;48.962;9.182;2023-05-08T01:34:43;10.63;;;6.47;;
19679;SDS011;9989;48.962;9.182;2023-05-08T01:37:27;11.37;;;6.73;;
19679;SDS011;9989;48.962;9.182;2023-05-08T01:40:07;11.50;;;6.43;;
19679;SDS011;9989;48.962;9.182;2023-05-08T01:45:28;11.90;;;7.13;;
19679;SDS011;9989;48.962;9.182;2023-05-08T01:48:06;10.73;;;6.53;;
19679;SDS011;9989;48.962;9.182;2023-05-08T01:50:39;13.30;;;7.40;;
19679;SDS011;9989;48.962;9.182;2023-05-08T01:53:28;11.93;;;7.10;;
19679;SDS011;9989;48.962;9.182;2023-05-08T01:55:58;11.33;;;6.80;;
19679;SDS011;9989;48.962;9.182;2023-05-08T01:58:29;11.90;;;6.97;;
19679;SDS011;9989;48.962;9.182;2023-05-08T02:00:57;12.93;;;7.17;;
19679;SDS011;9989;48.962;9.182;2023-05-08T02:03:26;11.80;;;6.53;;
19679;SDS011;9989;48.962;9.182;2023-05-08T02:05:52;11.37;;;6.47;;
19679;SDS011;9989;48.962;9.182;2023-05-08T02:08:21;11.83;;;6.70;;
19679;SDS011;9989;48.962;9.182;2023-05-08T02:10:49;11.93;;;7.03;;
19679;SDS011;9989;48.962;9.182;2023-05-08T02:13:15;10.00;;;6.23;;
19679;SDS011;9989;48.962;9.182;2023-05-08T02:15:44;11.70;;;6.77;;
19679;SDS011;9989;48.962;9.182;2023-05-08T02:18:12;14.23;;;6.43;;
19679;SDS011;9989;48.962;9.182;2023-05-08T02:20:39;10.43;;;6.40;;
19679;SDS011;9989;48.962;9.182;2023-05-08T02:23:06;10.43;;;5.87;;
19679;SDS011;9989;48.962;9.182;2023-05-08T02:25:36;10.07;;;5.83;;
19679;SDS011;9989;48.962;9.182;2023-05-08T02:28:03;9.77;;;5.70;;
19679;SDS011;9989;48.962;9.182;2023-05-08T02:30:31;9.00;;;5.50;;
19679;SDS011;9989;48.962;9.182;2023-05-08T02:32:58;8.73;;;5.43;;
19679;SDS011;9989;48.962;9.182;2023-05-08T02:35:25;10.80;;;5.13;;
19679;SDS011;9989;48.962;9.182;2023-05-08T02:37:54;8.80;;;5.33;;
19679;SDS011;9989;48.962;9.182;2023-05-08T02:40:21;9.70;;;5.00;;
19679;SDS011;9989;48.962;9.182;2023-05-08T02:42:50;8.97;;;5.40;;
19679;SDS011;9989;48.962;9.182;2023-05-08T02:45:16;8.17;;;5.17;;
19679;SDS011;9989;48.962;9.182;2023-05-08T02:47:45;9.43;;;5.57;;
19679;SDS011;9989;48.962;9.182;2023-05-08T02:50:34;9.73;;;5.50;;
19679;SDS011;9989;48.962;9.182;2023-05-08T02:53:10;9.23;;;5.30;;
19679;SDS011;9989;48.962;9.182;2023-05-08T02:55:45;11.10;;;6.33;;
19679;SDS011;9989;48.962;9.182;2023-05-08T03:03:51;10.97;;;6.20;;
19679;SDS011;9989;48.962;9.182;2023-05-08T03:06:24;11.67;;;6.40;;
19679;SDS011;9989;48.962;9.182;2023-05-08T03:08:52;10.77;;;6.60;;
19679;SDS011;9989;48.962;9.182;2023-05-08T03:11:23;10.13;;;6.17;;
19679;SDS011;9989;48.962;9.182;2023-05-08T03:13:56;10.93;;;6.03;;
19679;SDS011;9989;48.962;9.182;2023-05-08T03:16:24;9.23;;;5.67;;
19679;SDS011;9989;48.962;9.182;2023-05-08T03:18:56;12.57;;;7.80;;
19679;SDS011;9989;48.962;9.182;2023-05-08T03:21:27;10.40;;;6.20;;
19679;SDS011;9989;48.962;9.182;2023-05-08T03:23:54;9.87;;;6.37;;
19679;SDS011;9989;48.962;9.182;2023-05-08T03:26:22;10.23;;;5.93;;
19679;SDS011;9989;48.962;9.182;2023-05-08T03:28:49;11.33;;;6.30;;
19679;SDS011;9989;48.962;9.182;2023-05-08T03:31:16;11.20;;;6.20;;
19679;SDS011;9989;48.962;9.182;2023-05-08T03:33:45;11.20;;;6.80;;
19679;SDS011;9989;48.962;9.182;2023-05-08T03:36:20;9.83;;;5.93;;
19679;SDS011;9989;48.962;9.182;2023-05-08T03:38:48;11.00;;;6.43;;
19679;SDS011;9989;48.962;9.182;2023-05-08T03:41:14;9.77;;;6.00;;
19679;SDS011;9989;48.962;9.182;2023-05-08T03:43:40;10.03;;;6.17;;
19679;SDS011;9989;48.962;9.182;2023-05-08T03:46:06;9.53;;;6.23;;
19679;SDS011;9989;48.962;9.182;2023-05-08T03:48:33;10.17;;;6.40;;
19679;SDS011;9989;48.962;9.182;2023-05-08T03:51:00;10.27;;;5.83;;
19679;SDS011;9989;48.962;9.182;2023-05-08T03:53:30;11.50;;;6.17;;
19679;SDS011;9989;48.962;9.182;2023-05-08T03:55:57;9.33;;;5.77;;
19679;SDS011;9989;48.962;9.182;2023-05-08T04:03:43;10.50;;;6.80;;
19679;SDS011;9989;48.962;9.182;2023-05-08T04:06:45;10.27;;;6.23;;
19679;SDS011;9989;48.962;9.182;2023-05-08T04:09:42;9.57;;;6.00;;
19679;SDS011;9989;48.962;9.182;2023-05-08T04:12:29;8.60;;;5.03;;
19679;SDS011;9989;48.962;9.182;2023-05-08T04:15:24;9.47;;;5.57;;
19679;SDS011;9989;48.962;9.182;2023-05-08T04:17:58;10.17;;;5.83;;
19679;SDS011;9989;48.962;9.182;2023-05-08T04:20:28;8.60;;;5.47;;
19679;SDS011;9989;48.962;9.182;2023-05-08T04:22:54;10.80;;;6.23;;
19679;SDS011;9989;48.962;9.182;2023-05-08T04:25:21;10.03;;;6.17;;
19679;SDS011;9989;48.962;9.182;2023-05-08T04:27:47;9.37;;;5.50;;
19679;SDS011;9989;48.962;9.182;2023-05-08T04:30:18;10.70;;;6.53;;
19679;SDS011;9989;48.962;9.182;2023-05-08T04:32:44;9.37;;;5.53;;
19679;SDS011;9989;48.962;9.182;2023-05-08T04:35:11;10.43;;;6.30;;
19679;SDS011;9989;48.962;9.182;2023-05-08T04:37:37;9.67;;;6.10;;
19679;SDS011;9989;48.962;9.182;2023-05-08T04:40:05;11.33;;;6.00;;
19679;SDS011;9989;48.962;9.182;2023-05-08T04:42:31;10.40;;;6.33;;
19679;SDS011;9989;48.962;9.182;2023-05-08T04:45:00;10.70;;;6.80;;
19679;SDS011;9989;48.962;9.182;2023-05-08T04:47:26;10.13;;;6.13;;
19679;SDS011;9989;48.962;9.182;2023-05-08T04:49:51;9.97;;;5.47;;
19679;SDS011;9989;48.962;9.182;2023-05-08T04:52:17;10.40;;;6.53;;
19679;SDS011;9989;48.962;9.182;2023-05-08T04:54:43;9.80;;;5.83;;
19679;SDS011;9989;48.962;9.182;2023-05-08T04:57:08;9.97;;;5.77;;
19679;SDS011;9989;48.962;9.182;2023-05-08T04:59:34;8.73;;;5.40;;
19679;SDS011;9989;48.962;9.182;2023-05-08T05:02:00;10.03;;;6.50;;
19679;SDS011;9989;48.962;9.182;2023-05-08T05:04:28;9.77;;;6.13;;
19679;SDS011;9989;48.962;9.182;2023-05-08T05:06:59;10.87;;;6.70;;
19679;SDS011;9989;48.962;9.182;2023-05-08T05:09:27;11.03;;;6.60;;
19679;SDS011;9989;48.962;9.182;2023-05-08T05:11:52;13.23;;;7.50;;
19679;SDS011;9989;48.962;9.182;2023-05-08T05:14:18;11.97;;;7.60;;
19679;SDS011;9989;48.962;9.182;2023-05-08T05:16:44;11.80;;;6.63;;
19679;SDS011;9989;48.962;9.182;2023-05-08T05:19:09;10.93;;;7.30;;
19679;SDS011;9989;48.962;9.182;2023-05-08T05:21:35;11.07;;;6.77;;
19679;SDS011;9989;48.962;9.182;2023-05-08T05:24:04;10.40;;;7.00;;
19679;SDS011;9989;48.962;9.182;2023-05-08T05:26:30;9.43;;;6.20;;
19679;SDS011;9989;48.962;9.182;2023-05-08T05:28:56;9.83;;;6.33;;
19679;SDS011;9989;48.962;9.182;2023-05-08T05:31:22;10.03;;;6.47;;
19679;SDS011;9989;48.962;9.182;2023-05-08T05:33:48;10.93;;;6.03;;
19679;SDS011;9989;48.962;9.182;2023-05-08T05:36:13;12.67;;;6.33;;
19679;SDS011;9989;48.962;9.182;2023-05-08T05:38:39;8.80;;;5.43;;
19679;SDS011;9989;48.962;9.182;2023-05-08T05:41:05;9.37;;;5.80;;
19679;SDS011;9989;48.962;9.182;2023-05-08T05:43:31;9.50;;;5.70;;
19679;SDS011;9989;48.962;9.182;2023-05-08T05:46:02;9.60;;;5.60;;
19679;SDS011;9989;48.962;9.182;2023-05-08T05:48:31;8.43;;;4.90;;
19679;SDS011;9989;48.962;9.182;2023-05-08T05:50:57;8.50;;;5.10;;
19679;SDS011;9989;48.962;9.182;2023-05-08T05:53:23;8.20;;;5.23;;
19679;SDS011;9989;48.962;9.182;2023-05-08T05:55:49;9.97;;;5.27;;
19679;SDS011;9989;48.962;9.182;2023-05-08T05:58:14;7.30;;;4.67;;
19679;SDS011;9989;48.962;9.182;2023-05-08T06:00:41;8.10;;;4.80;;
19679;SDS011;9989;48.962;9.182;2023-05-08T06:03:07;9.30;;;5.10;;
19679;SDS011;9989;48.962;9.182;2023-05-08T06:05:32;8.77;;;5.30;;
19679;SDS011;9989;48.962;9.182;2023-05-08T06:07:58;9.07;;;5.77;;
19679;SDS011;9989;48.962;9.182;2023-05-08T06:10:24;9.43;;;5.90;;
19679;SDS011;9989;48.962;9.182;2023-05-08T06:12:50;8.93;;;5.40;;
19679;SDS011;9989;48.962;9.182;2023-05-08T06:15:15;9.20;;;5.67;;
19679;SDS011;9989;48.962;9.182;2023-05-08T06:17:42;10.23;;;6.33;;
19679;SDS011;9989;48.962;9.182;2023-05-08T06:20:08;11.53;;;6.60;;
19679;SDS011;9989;48.962;9.182;2023-05-08T06:22:34;14.23;;;6.83;;
19679;SDS011;9989;48.962;9.182;2023-05-08T06:25:01;8.77;;;5.80;;
19679;SDS011;9989;48.962;9.182;2023-05-08T06:27:27;9.73;;;5.67;;
19679;SDS011;9989;48.962;9.182;2023-05-08T06:29:53;9.20;;;5.57;;
19679;SDS011;9989;48.962;9.182;2023-05-08T06:32:19;9.97;;;6.40;;
19679;SDS011;9989;48.962;9.182;2023-05-08T06:34:45;9.33;;;5.50;;
19679;SDS011;9989;48.962;9.182;2023-05-08T06:37:10;12.50;;;6.87;;
19679;SDS011;9989;48.962;9.182;2023-05-08T06:39:36;10.27;;;5.50;;
19679;SDS011;9989;48.962;9.182;2023-05-08T06:42:02;10.00;;;6.13;;
19679;SDS011;9989;48.962;9.182;2023-05-08T06:44:30;9.53;;;5.93;;
19679;SDS011;9989;48.962;9.182;2023-05-08T06:46:56;11.40;;;6.67;;
19679;SDS011;9989;48.962;9.182;2023-05-08T06:49:22;10.00;;;6.77;;
19679;SDS011;9989;48.962;9.182;2023-05-08T06:51:48;10.13;;;6.53;;
19679;SDS011;9989;48.962;9.182;2023-05-08T06:54:13;10.70;;;6.37;;
19679;SDS011;9989;48.962;9.182;2023-05-08T06:56:39;11.47;;;6.40;;
19679;SDS011;9989;48.962;9.182;2023-05-08T06:59:05;13.27;;;6.47;;
19679;SDS011;9989;48.962;9.182;2023-05-08T07:01:30;12.27;;;7.80;;
19679;SDS011;9989;48.962;9.182;2023-05-08T07:03:56;12.87;;;7.07;;
19679;SDS011;9989;48.962;9.182;2023-05-08T07:06:22;10.73;;;6.83;;
19679;SDS011;9989;48.962;9.182;2023-05-08T07:08:48;12.13;;;7.27;;
19679;SDS011;9989;48.962;9.182;2023-05-08T07:11:14;12.10;;;6.53;;
19679;SDS011;9989;48.962;9.182;2023-05-08T07:13:39;13.47;;;7.23;;
19679;SDS011;9989;48.962;9.182;2023-05-08T07:16:10;14.43;;;9.07;;
19679;SDS011;9989;48.962;9.182;2023-05-08T07:18:36;12.10;;;8.13;;
19679;SDS011;9989;48.962;9.182;2023-05-08T07:21:02;12.33;;;6.90;;
19679;SDS011;9989;48.962;9.182;2023-05-08T07:23:28;13.50;;;8.57;;
19679;SDS011;9989;48.962;9.182;2023-05-08T07:25:53;12.70;;;7.43;;
19679;SDS011;9989;48.962;9.182;2023-05-08T07:28:20;12.97;;;8.33;;
19679;SDS011;9989;48.962;9.182;2023-05-08T07:30:45;13.80;;;7.77;;
19679;SDS011;9989;48.962;9.182;2023-05-08T07:33:11;12.20;;;7.27;;
19679;SDS011;9989;48.962;9.182;2023-05-08T07:35:37;12.17;;;7.40;;
19679;SDS011;9989;48.962;9.182;2023-05-08T07:38:03;14.80;;;8.00;;
19679;SDS011;9989;48.962;9.182;2023-05-08T07:40:29;12.67;;;8.57;;
19679;SDS011;9989;48.962;9.182;2023-05-08T07:42:55;12.50;;;8.20;;
19679;SDS011;9989;48.962;9.182;2023-05-08T07:45:20;12.97;;;8.50;;
19679;SDS011;9989;48.962;9.182;2023-05-08T07:47:50;10.80;;;6.80;;
19679;SDS011;9989;48.962;9.182;2023-05-08T07:50:16;13.90;;;7.37;;
19679;SDS011;9989;48.962;9.182;2023-05-08T07:52:42;10.40;;;6.80;;
19679;SDS011;9989;48.962;9.182;2023-05-08T07:55:08;14.20;;;8.03;;
19679;SDS011;9989;48.962;9.182;2023-05-08T07:57:38;10.33;;;6.70;;
19679;SDS011;9989;48.962;9.182;2023-05-08T08:00:06;11.87;;;7.27;;
19679;SDS011;9989;48.962;9.182;2023-05-08T08:02:33;10.77;;;6.60;;
19679;SDS011;9989;48.962;9.182;2023-05-08T08:04:59;14.17;;;7.47;;
19679;SDS011;9989;48.962;9.182;2023-05-08T08:07:25;12.60;;;6.77;;
19679;SDS011;9989;48.962;9.182;2023-05-08T08:09:51;10.70;;;7.00;;
19679;SDS011;9989;48.962;9.182;2023-05-08T08:12:16;10.87;;;7.00;;
19679;SDS011;9989;48.962;9.182;2023-05-08T08:14:42;12.77;;;6.87;;
19679;SDS011;9989;48.962;9.182;2023-05-08T08:17:08;10.27;;;6.53;;
19679;SDS011;9989;48.962;9.182;2023-05-08T08:19:33;12.23;;;7.03;;
19679;SDS011;9989;48.962;9.182;2023-05-08T08:21:59;11.93;;;7.77;;
19679;SDS011;9989;48.962;9.182;2023-05-08T08:24:25;12.97;;;7.97;;
19679;SDS011;9989;48.962;9.182;2023-05-08T08:26:53;10.37;;;6.53;;
19679;SDS011;9989;48.962;9.182;2023-05-08T08:29:18;10.30;;;6.50;;
19679;SDS011;9989;48.962;9.182;2023-05-08T08:31:44;12.50;;;7.93;;
19679;SDS011;9989;48.962;9.182;2023-05-08T08:34:10;10.17;;;6.00;;
19679;SDS011;9989;48.962;9.182;2023-05-08T08:36:36;10.43;;;5.97;;
19679;SDS011;9989;48.962;9.182;2023-05-08T08:39:03;10.73;;;6.10;;
19679;SDS011;9989;48.962;9.182;2023-05-08T08:41:28;11.20;;;6.43;;
19679;SDS011;9989;48.962;9.182;2023-05-08T08:43:54;9.33;;;5.33;;
19679;SDS011;9989;48.962;9.182;2023-05-08T08:46:23;12.53;;;8.40;;
19679;SDS011;9989;48.962;9.182;2023-05-08T08:48:50;14.53;;;7.17;;
19679;SDS011;9989;48.962;9.182;2023-05-08T08:53:59;10.73;;;6.73;;
19679;SDS011;9989;48.962;9.182;2023-05-08T08:56:28;9.67;;;5.77;;
19679;SDS011;9989;48.962;9.182;2023-05-08T08:58:56;10.37;;;5.27;;
19679;SDS011;9989;48.962;9.182;2023-05-08T09:01:25;10.33;;;5.73;;
19679;SDS011;9989;48.962;9.182;2023-05-08T09:03:56;10.23;;;6.70;;
19679;SDS011;9989;48.962;9.182;2023-05-08T09:06:22;10.63;;;5.70;;
19679;SDS011;9989;48.962;9.182;2023-05-08T09:08:48;10.77;;;7.27;;
19679;SDS011;9989;48.962;9.182;2023-05-08T09:11:16;9.50;;;5.57;;
19679;SDS011;9989;48.962;9.182;2023-05-08T09:13:41;12.83;;;7.37;;
19679;SDS011;9989;48.962;9.182;2023-05-08T09:16:07;11.23;;;6.87;;
19679;SDS011;9989;48.962;9.182;2023-05-08T09:18:33;10.90;;;6.70;;
19679;SDS011;9989;48.962;9.182;2023-05-08T09:20:58;9.50;;;5.67;;
19679;SDS011;9989;48.962;9.182;2023-05-08T09:23:25;11.87;;;7.60;;
19679;SDS011;9989;48.962;9.182;2023-05-08T09:25:51;13.03;;;6.73;;
19679;SDS011;9989;48.962;9.182;2023-05-08T09:28:18;13.43;;;7.53;;
19679;SDS011;9989;48.962;9.182;2023-05-08T09:33:18;11.13;;;6.70;;
19679;SDS011;9989;48.962;9.182;2023-05-08T09:35:45;14.17;;;8.20;;
19679;SDS011;9989;48.962;9.182;2023-05-08T09:38:47;13.40;;;7.97;;
19679;SDS011;9989;48.962;9.182;2023-05-08T09:43:39;12.33;;;6.97;;
19679;SDS011;9989;48.962;9.182;2023-05-08T09:46:18;12.87;;;7.07;;
19679;SDS011;9989;48.962;9.182;2023-05-08T09:48:48;12.20;;;7.50;;
19679;SDS011;9989;48.962;9.182;2023-05-08T09:51:15;17.13;;;10.00;;
19679;SDS011;9989;48.962;9.182;2023-05-08T09:53:41;21.73;;;10.60;;
19679;SDS011;9989;48.962;9.182;2023-05-08T09:56:07;12.90;;;7.40;;
19679;SDS011;9989;48.962;9.182;2023-05-08T09:58:39;11.67;;;7.43;;
19679;SDS011;9989;48.962;9.182;2023-05-08T10:04:10;11.53;;;6.93;;
19679;SDS011;9989;48.962;9.182;2023-05-08T10:06:36;12.57;;;7.93;;
19679;SDS011;9989;48.962;9.182;2023-05-08T10:09:05;13.27;;;8.33;;
19679;SDS011;9989;48.962;9.182;2023-05-08T10:11:38;12.10;;;7.83;;
19679;SDS011;9989;48.962;9.182;2023-05-08T10:14:05;14.80;;;8.27;;
19679;SDS011;9989;48.962;9.182;2023-05-08T10:16:35;16.87;;;9.20;;
19679;SDS011;9989;48.962;9.182;2023-05-08T10:19:09;13.27;;;7.80;;
19679;SDS011;9989;48.962;9.182;2023-05-08T10:21:41;13.07;;;7.27;;
19679;SDS011;9989;48.962;9.182;2023-05-08T10:24:14;12.87;;;7.63;;
19679;SDS011;9989;48.962;9.182;2023-05-08T10:26:49;15.23;;;9.10;;
19679;SDS011;9989;48.962;9.182;2023-05-08T10:29:20;11.77;;;8.10;;
19679;SDS011;9989;48.962;9.182;2023-05-08T10:31:57;17.07;;;9.93;;
19679;SDS011;9989;48.962;9.182;2023-05-08T10:34:23;13.33;;;8.67;;
19679;SDS011;9989;48.962;9.182;2023-05-08T10:36:51;13.77;;;8.10;;
19679;SDS011;9989;48.962;9.182;2023-05-08T10:39:18;14.80;;;8.37;;
19679;SDS011;9989;48.962;9.182;2023-05-08T10:41:45;12.30;;;7.97;;
19679;SDS011;9989;48.962;9.182;2023-05-08T10:44:13;11.20;;;7.03;;
19679;SDS011;9989;48.962;9.182;2023-05-08T10:52:17;10.57;;;5.60;;
19679;SDS011;9989;48.962;9.182;2023-05-08T10:54:50;13.80;;;8.60;;
19679;SDS011;9989;48.962;9.182;2023-05-08T10:57:41;11.67;;;7.30;;
19679;SDS011;9989;48.962;9.182;2023-05-08T11:00:25;11.87;;;7.63;;
19679;SDS011;9989;48.962;9.182;2023-05-08T11:03:03;10.90;;;6.97;;
19679;SDS011;9989;48.962;9.182;2023-05-08T11:05:30;8.97;;;5.23;;
19679;SDS011;9989;48.962;9.182;2023-05-08T11:13:43;13.83;;;8.37;;
19679;SDS011;9989;48.962;9.182;2023-05-08T11:16:12;11.60;;;7.90;;
19679;SDS011;9989;48.962;9.182;2023-05-08T11:19:04;10.87;;;7.00;;
19679;SDS011;9989;48.962;9.182;2023-05-08T11:22:14;11.20;;;7.23;;
19679;SDS011;9989;48.962;9.182;2023-05-08T11:38:24;13.10;;;8.17;;
19679;SDS011;9989;48.962;9.182;2023-05-08T11:46:04;13.83;;;9.00;;
19679;SDS011;9989;48.962;9.182;2023-05-08T11:48:30;15.17;;;9.13;;
19679;SDS011;9989;48.962;9.182;2023-05-08T11:50:58;14.47;;;9.20;;
19679;SDS011;9989;48.962;9.182;2023-05-08T11:53:24;17.03;;;9.73;;
19679;SDS011;9989;48.962;9.182;2023-05-08T11:55:53;14.50;;;9.90;;
19679;SDS011;9989;48.962;9.182;2023-05-08T11:58:19;13.17;;;8.10;;
19679;SDS011;9989;48.962;9.182;2023-05-08T12:00:45;12.87;;;8.90;;
19679;SDS011;9989;48.962;9.182;2023-05-08T12:03:20;15.77;;;10.07;;
19679;SDS011;9989;48.962;9.182;2023-05-08T12:05:47;16.63;;;9.70;;
19679;SDS011;9989;48.962;9.182;2023-05-08T12:08:14;17.63;;;9.43;;
19679;SDS011;9989;48.962;9.182;2023-05-08T12:10:48;14.43;;;9.80;;
19679;SDS011;9989;48.962;9.182;2023-05-08T12:15:48;14.33;;;9.60;;
19679;SDS011;9989;48.962;9.182;2023-05-08T12:18:15;14.70;;;9.67;;
19679;SDS011;9989;48.962;9.182;2023-05-08T12:20:41;19.17;;;12.83;;
19679;SDS011;9989;48.962;9.182;2023-05-08T12:23:07;14.93;;;9.13;;
19679;SDS011;9989;48.962;9.182;2023-05-08T12:25:36;13.40;;;8.60;;
19679;SDS011;9989;48.962;9.182;2023-05-08T12:28:04;20.17;;;11.13;;
19679;SDS011;9989;48.962;9.182;2023-05-08T12:30:31;15.93;;;11.67;;
19679;SDS011;9989;48.962;9.182;2023-05-08T12:32:57;15.43;;;9.70;;
19679;SDS011;9989;48.962;9.182;2023-05-08T12:35:23;15.93;;;10.13;;
19679;SDS011;9989;48.962;9.182;2023-05-08T12:37:50;12.83;;;8.97;;
19679;SDS011;9989;48.962;9.182;2023-05-08T12:40:26;16.17;;;10.13;;
19679;SDS011;9989;48.962;9.182;2023-05-08T12:42:53;13.57;;;9.93;;
19679;SDS011;9989;48.962;9.182;2023-05-08T12:45:23;16.37;;;9.70;;
19679;SDS011;9989;48.962;9.182;2023-05-08T12:47:52;14.40;;;9.40;;
19679;SDS011;9989;48.962;9.182;2023-05-08T12:50:20;12.97;;;9.10;;
19679;SDS011;9989;48.962;9.182;2023-05-08T12:52:46;18.60;;;11.17;;
19679;SDS011;9989;48.962;9.182;2023-05-08T12:55:22;19.30;;;12.73;;
19679;SDS011;9989;48.962;9.182;2023-05-08T13:00:35;19.87;;;12.97;;
19679;SDS011;9989;48.962;9.182;2023-05-08T13:03:04;17.03;;;11.03;;
19679;SDS011;9989;48.962;9.182;2023-05-08T13:05:31;23.17;;;12.03;;
19679;SDS011;9989;48.962;9.182;2023-05-08T13:08:00;16.00;;;11.43;;
19679;SDS011;9989;48.962;9.182;2023-05-08T13:13:18;14.97;;;10.20;;
19679;SDS011;9989;48.962;9.182;2023-05-08T13:15:45;15.90;;;11.10;;
19679;SDS011;9989;48.962;9.182;2023-05-08T13:18:12;15.83;;;10.43;;
19679;SDS011;9989;48.962;9.182;2023-05-08T13:20:38;18.00;;;10.23;;
19679;SDS011;9989;48.962;9.182;2023-05-08T13:23:04;16.57;;;11.33;;
19679;SDS011;9989;48.962;9.182;2023-05-08T13:25:30;13.67;;;9.87;;
19679;SDS011;9989;48.962;9.182;2023-05-08T13:27:57;12.00;;;8.47;;
19679;SDS011;9989;48.962;9.182;2023-05-08T13:30:23;12.90;;;8.70;;
19679;SDS011;9989;48.962;9.182;2023-05-08T13:32:49;14.67;;;9.47;;
19679;SDS011;9989;48.962;9.182;2023-05-08T13:35:15;14.23;;;9.60;;
19679;SDS011;9989;48.962;9.182;2023-05-08T13:37:41;16.83;;;10.13;;
19679;SDS011;9989;48.962;9.182;2023-05-08T13:40:07;16.67;;;10.60;;
19679;SDS011;9989;48.962;9.182;2023-05-08T13:42:33;14.17;;;9.63;;
19679;SDS011;9989;48.962;9.182;2023-05-08T13:44:59;14.33;;;8.93;;
19679;SDS011;9989;48.962;9.182;2023-05-08T13:47:25;13.13;;;8.93;;
19679;SDS011;9989;48.962;9.182;2023-05-08T13:49:51;14.43;;;9.80;;
19679;SDS011;9989;48.962;9.182;2023-05-08T13:52:17;13.10;;;8.63;;
19679;SDS011;9989;48.962;9.182;2023-05-08T13:54:43;14.07;;;9.00;;
19679;SDS011;9989;48.962;9.182;2023-05-08T13:57:08;12.70;;;8.37;;
19679;SDS011;9989;48.962;9.182;2023-05-08T13:59:35;14.63;;;10.13;;
19679;SDS011;9989;48.962;9.182;2023-05-08T14:02:01;12.53;;;7.77;;
19679;SDS011;9989;48.962;9.182;2023-05-08T14:04:26;12.50;;;8.87;;
19679;SDS011;9989;48.962;9.182;2023-05-08T14:06:52;12.27;;;8.50;;
19679;SDS011;9989;48.962;9.182;2023-05-08T14:09:18;12.93;;;8.90;;
19679;SDS011;9989;48.962;9.182;2023-05-08T14:11:44;15.00;;;10.33;;
19679;SDS011;9989;48.962;9.182;2023-05-08T14:14:09;14.57;;;9.97;;
19679;SDS011;9989;48.962;9.182;2023-05-08T14:16:35;13.50;;;9.23;;
19679;SDS011;9989;48.962;9.182;2023-05-08T14:19:00;19.47;;;12.00;;
19679;SDS011;9989;48.962;9.182;2023-05-08T14:21:26;15.03;;;10.40;;
19679;SDS011;9989;48.962;9.182;2023-05-08T14:23:52;18.57;;;11.03;;
19679;SDS011;9989;48.962;9.182;2023-05-08T14:26:18;14.77;;;10.60;;
19679;SDS011;9989;48.962;9.182;2023-05-08T14:28:45;14.77;;;10.50;;
19679;SDS011;9989;48.962;9.182;2023-05-08T14:31:11;14.83;;;9.77;;
19679;SDS011;9989;48.962;9.182;2023-05-08T14:33:36;13.53;;;9.73;;
19679;SDS011;9989;48.962;9.182;2023-05-08T14:36:02;14.70;;;9.57;;
19679;SDS011;9989;48.962;9.182;2023-05-08T14:38:28;13.83;;;9.40;;
19679;SDS011;9989;48.962;9.182;2023-05-08T14:40:53;13.83;;;9.37;;
19679;SDS011;9989;48.962;9.182;2023-05-08T14:43:19;14.33;;;9.70;;
19679;SDS011;9989;48.962;9.182;2023-05-08T14:45:45;13.57;;;9.30;;
19679;SDS011;9989;48.962;9.182;2023-05-08T14:48:11;13.60;;;9.30;;
19679;SDS011;9989;48.962;9.182;2023-05-08T14:50:37;14.73;;;9.10;;
19679;SDS011;9989;48.962;9.182;2023-05-08T14:53:04;13.90;;;9.23;;
19679;SDS011;9989;48.962;9.182;2023-05-08T14:55:30;12.77;;;9.23;;
19679;SDS011;9989;48.962;9.182;2023-05-08T14:57:55;15.70;;;9.80;;
19679;SDS011;9989;48.962;9.182;2023-05-08T15:00:21;17.30;;;10.30;;
19679;SDS011;9989;48.962;9.182;2023-05-08T15:02:47;13.90;;;9.70;;
19679;SDS011;9989;48.962;9.182;2023-05-08T15:05:13;15.80;;;11.60;;
19679;SDS011;9989;48.962;9.182;2023-05-08T15:07:38;13.30;;;9.43;;
19679;SDS011;9989;48.962;9.182;2023-05-08T15:10:05;15.97;;;9.93;;
19679;SDS011;9989;48.962;9.182;2023-05-08T15:12:31;15.03;;;9.60;;
19679;SDS011;9989;48.962;9.182;2023-05-08T15:14:57;13.87;;;8.97;;
19679;SDS011;9989;48.962;9.182;2023-05-08T15:17:23;12.10;;;8.23;;
19679;SDS011;9989;48.962;9.182;2023-05-08T15:19:48;13.63;;;9.50;;
19679;SDS011;9989;48.962;9.182;2023-05-08T15:22:14;15.43;;;11.43;;
19679;SDS011;9989;48.962;9.182;2023-05-08T15:24:41;22.27;;;13.50;;
19679;SDS011;9989;48.962;9.182;2023-05-08T15:27:07;12.00;;;8.00;;
19679;SDS011;9989;48.962;9.182;2023-05-08T15:29:34;14.03;;;9.47;;
19679;SDS011;9989;48.962;9.182;2023-05-08T15:32:00;12.53;;;8.40;;
19679;SDS011;9989;48.962;9.182;2023-05-08T15:34:26;14.07;;;8.53;;
19679;SDS011;9989;48.962;9.182;2023-05-08T15:36:52;14.27;;;9.43;;
19679;SDS011;9989;48.962;9.182;2023-05-08T15:39:17;12.53;;;8.07;;
19679;SDS011;9989;48.962;9.182;2023-05-08T15:41:43;11.60;;;7.47;;
19679;SDS011;9989;48.962;9.182;2023-05-08T15:44:09;15.53;;;9.63;;
19679;SDS011;9989;48.962;9.182;2023-05-08T15:46:35;13.33;;;8.90;;
19679;SDS011;9989;48.962;9.182;2023-05-08T15:49:00;16.90;;;9.60;;
19679;SDS011;9989;48.962;9.182;2023-05-08T15:51:26;12.90;;;8.30;;
19679;SDS011;9989;48.962;9.182;2023-05-08T15:53:52;11.20;;;7.53;;
19679;SDS011;9989;48.962;9.182;2023-05-08T15:56:20;11.13;;;7.50;;
19679;SDS011;9989;48.962;9.182;2023-05-08T15:58:48;13.83;;;9.23;;
19679;SDS011;9989;48.962;9.182;2023-05-08T16:01:14;11.83;;;8.30;;
19679;SDS011;9989;48.962;9.182;2023-05-08T16:03:40;12.03;;;7.70;;
19679;SDS011;9989;48.962;9.182;2023-05-08T16:06:05;12.13;;;7.87;;
19679;SDS011;9989;48.962;9.182;2023-05-08T16:08:31;12.90;;;7.97;;
19679;SDS011;9989;48.962;9.182;2023-05-08T16:10:56;12.07;;;7.63;;